sensor_id;sensor_type;location;lat;lon;timestamp;pressure;altitude;pressure_sealevel;temperature;humidity
5651;BME280;40241;52.684;9.758;2023-05-11T00:00:36;101156.53;;;17.07;63.64
5651;BME280;40241;52.684;9.758;2023-05-11T00:03:02;101162.88;;;17.08;63.57
5651;BME280;40241;52.684;9.758;2023-05-11T00:05:27;101168.94;;;17.06;63.57
5651;BME280;40241;52.684;9.758;2023-05-11T00:07:52;101149.00;;;17.02;63.66
5651;BME280;40241;52.684;9.758;2023-05-11T00:10:18;101145.47;;;17.02;63.62
5651;BME280;40241;52.684;9.758;2023-05-11T00:12:43;101150.00;;;17.05;63.76
5651;BME280;40241;52.684;9.758;2023-05-11T00:15:09;101167.13;;;17.09;63.51
5651;BME280;40241;52.684;9.758;2023-05-11T00:17:34;101142.69;;;17.02;63.52
5651;BME280;40241;52.684;9.758;2023-05-11T00:20:00;101188.84;;;17.10;63.54
5651;BME280;40241;52.684;9.758;2023-05-11T00:22:25;101170.34;;;17.13;63.50
5651;BME280;40241;52.684;9.758;2023-05-11T00:24:50;101157.00;;;17.11;63.58
5651;BME280;40241;52.684;9.758;2023-05-11T00:27:16;101159.56;;;17.09;63.47
5651;BME280;40241;52.684;9.758;2023-05-11T00:29:41;101154.53;;;17.08;63.53
5651;BME280;40241;52.684;9.758;2023-05-11T00:32:07;101163.91;;;17.05;63.40
5651;BME280;40241;52.684;9.758;2023-05-11T00:34:33;101152.78;;;17.05;63.43
5651;BME280;40241;52.684;9.758;2023-05-11T00:36:58;101154.34;;;17.00;63.51
5651;BME280;40241;52.684;9.758;2023-05-11T00:39:23;101152.09;;;16.99;63.71
5651;BME280;40241;52.684;9.758;2023-05-11T00:41:49;101154.88;;;16.99;63.63
5651;BME280;40241;52.684;9.758;2023-05-11T00:44:14;101154.13;;;16.98;63.80
5651;BME280;40241;52.684;9.758;2023-05-11T00:46:40;101165.78;;;16.97;63.55
5651;BME280;40241;52.684;9.758;2023-05-11T00:49:06;101158.69;;;16.96;63.62
5651;BME280;40241;52.684;9.758;2023-05-11T00:51:31;101159.00;;;16.92;63.84
5651;BME280;40241;52.684;9.758;2023-05-11T00:53:58;101182.59;;;16.86;63.72
5651;BME280;40241;52.684;9.758;2023-05-11T00:56:23;101153.81;;;16.83;63.73
5651;BME280;40241;52.684;9.758;2023-05-11T00:58:49;101151.09;;;16.78;63.82
5651;BME280;40241;52.684;9.758;2023-05-11T01:01:14;101151.69;;;16.71;64.12
5651;BME280;40241;52.684;9.758;2023-05-11T01:03:42;101162.81;;;16.71;64.01
5651;BME280;40241;52.684;9.758;2023-05-11T01:06:25;101153.94;;;16.72;64.34
5651;BME280;40241;52.684;9.758;2023-05-11T01:08:57;101165.59;;;16.71;63.95
5651;BME280;40241;52.684;9.758;2023-05-11T01:11:31;101153.19;;;16.72;63.88
5651;BME280;40241;52.684;9.758;2023-05-11T01:14:26;101134.09;;;16.63;64.42
5651;BME280;40241;52.684;9.758;2023-05-11T01:16:56;101138.84;;;16.68;63.85
5651;BME280;40241;52.684;9.758;2023-05-11T01:21:49;101214.59;;;16.68;63.86
5651;BME280;40241;52.684;9.758;2023-05-11T01:27:10;101162.19;;;16.78;64.25
5651;BME280;40241;52.684;9.758;2023-05-11T01:32:37;101157.94;;;16.77;63.70
5651;BME280;40241;52.684;9.758;2023-05-11T01:35:08;101185.19;;;16.78;63.67
5651;BME280;40241;52.684;9.758;2023-05-11T01:37:35;101165.22;;;16.80;63.55
5651;BME280;40241;52.684;9.758;2023-05-11T01:40:09;101156.63;;;16.78;63.67
5651;BME280;40241;52.684;9.758;2023-05-11T01:42:44;101156.63;;;16.78;63.89
5651;BME280;40241;52.684;9.758;2023-05-11T01:45:11;101174.38;;;16.75;63.71
5651;BME280;40241;52.684;9.758;2023-05-11T01:47:39;101165.28;;;16.74;63.69
5651;BME280;40241;52.684;9.758;2023-05-11T01:50:07;101160.25;;;16.73;63.68
5651;BME280;40241;52.684;9.758;2023-05-11T01:52:34;101156.50;;;16.70;63.75
5651;BME280;40241;52.684;9.758;2023-05-11T01:55:03;101171.38;;;16.73;63.82
5651;BME280;40241;52.684;9.758;2023-05-11T01:57:30;101161.50;;;16.72;63.76
5651;BME280;40241;52.684;9.758;2023-05-11T01:59:57;101166.84;;;16.70;63.76
5651;BME280;40241;52.684;9.758;2023-05-11T02:02:24;101190.28;;;16.74;63.72
5651;BME280;40241;52.684;9.758;2023-05-11T02:04:51;101178.94;;;16.72;63.69
5651;BME280;40241;52.684;9.758;2023-05-11T02:07:18;101193.59;;;16.73;63.84
5651;BME280;40241;52.684;9.758;2023-05-11T02:09:44;101175.41;;;16.72;63.70
5651;BME280;40241;52.684;9.758;2023-05-11T02:12:12;101186.53;;;16.72;63.66
5651;BME280;40241;52.684;9.758;2023-05-11T02:14:39;101206.78;;;16.67;63.73
5651;BME280;40241;52.684;9.758;2023-05-11T02:17:06;101182.47;;;16.73;63.67
5651;BME280;40241;52.684;9.758;2023-05-11T02:19:33;101171.94;;;16.66;63.64
5651;BME280;40241;52.684;9.758;2023-05-11T02:22:01;101169.16;;;16.66;63.85
5651;BME280;40241;52.684;9.758;2023-05-11T02:24:29;101185.09;;;16.65;63.74
5651;BME280;40241;52.684;9.758;2023-05-11T02:26:55;101189.16;;;16.64;63.93
5651;BME280;40241;52.684;9.758;2023-05-11T02:29:20;101180.81;;;16.64;63.92
5651;BME280;40241;52.684;9.758;2023-05-11T02:31:48;101167.50;;;16.57;63.90
5651;BME280;40241;52.684;9.758;2023-05-11T02:34:34;101190.94;;;16.62;64.18
5651;BME280;40241;52.684;9.758;2023-05-11T02:37:06;101185.63;;;16.64;63.78
5651;BME280;40241;52.684;9.758;2023-05-11T02:39:34;101185.38;;;16.62;63.76
5651;BME280;40241;52.684;9.758;2023-05-11T02:42:08;101200.31;;;16.59;63.93
5651;BME280;40241;52.684;9.758;2023-05-11T02:44:36;101201.09;;;16.54;63.96
5651;BME280;40241;52.684;9.758;2023-05-11T02:47:05;101195.53;;;16.54;63.84
5651;BME280;40241;52.684;9.758;2023-05-11T02:49:35;101183.94;;;16.49;63.93
5651;BME280;40241;52.684;9.758;2023-05-11T02:52:02;101190.00;;;16.54;64.04
5651;BME280;40241;52.684;9.758;2023-05-11T02:54:29;101175.63;;;16.49;64.01
5651;BME280;40241;52.684;9.758;2023-05-11T02:56:56;101182.72;;;16.51;64.01
5651;BME280;40241;52.684;9.758;2023-05-11T02:59:23;101185.25;;;16.48;63.79
5651;BME280;40241;52.684;9.758;2023-05-11T03:01:49;101183.25;;;16.43;64.23
5651;BME280;40241;52.684;9.758;2023-05-11T03:04:15;101195.63;;;16.42;64.01
5651;BME280;40241;52.684;9.758;2023-05-11T03:06:40;101209.50;;;16.42;64.22
5651;BME280;40241;52.684;9.758;2023-05-11T03:09:05;101207.25;;;16.41;63.98
5651;BME280;40241;52.684;9.758;2023-05-11T03:11:31;101202.00;;;16.37;64.10
5651;BME280;40241;52.684;9.758;2023-05-11T03:13:57;101198.00;;;16.33;64.19
5651;BME280;40241;52.684;9.758;2023-05-11T03:16:23;101194.78;;;16.29;64.09
5651;BME280;40241;52.684;9.758;2023-05-11T03:18:49;101193.78;;;16.26;64.50
5651;BME280;40241;52.684;9.758;2023-05-11T03:21:17;101192.03;;;16.23;64.47
5651;BME280;40241;52.684;9.758;2023-05-11T03:23:46;101199.88;;;16.19;64.63
5651;BME280;40241;52.684;9.758;2023-05-11T03:26:12;101239.28;;;16.18;64.55
5651;BME280;40241;52.684;9.758;2023-05-11T03:28:40;101200.69;;;16.14;64.56
5651;BME280;40241;52.684;9.758;2023-05-11T03:31:07;101188.31;;;16.15;64.60
5651;BME280;40241;52.684;9.758;2023-05-11T03:33:32;101198.91;;;16.17;64.69
5651;BME280;40241;52.684;9.758;2023-05-11T03:35:58;101187.75;;;16.22;64.62
5651;BME280;40241;52.684;9.758;2023-05-11T03:38:27;101184.97;;;16.22;64.47
5651;BME280;40241;52.684;9.758;2023-05-11T03:40:53;101191.56;;;16.19;64.41
5651;BME280;40241;52.684;9.758;2023-05-11T03:43:20;101189.56;;;16.14;64.65
5651;BME280;40241;52.684;9.758;2023-05-11T03:45:48;101182.81;;;16.10;64.62
5651;BME280;40241;52.684;9.758;2023-05-11T03:48:15;101199.97;;;16.08;64.72
5651;BME280;40241;52.684;9.758;2023-05-11T03:50:42;101236.91;;;15.98;64.84
5651;BME280;40241;52.684;9.758;2023-05-11T03:53:09;101194.44;;;16.08;64.86
5651;BME280;40241;52.684;9.758;2023-05-11T03:55:36;101198.97;;;16.06;64.69
5651;BME280;40241;52.684;9.758;2023-05-11T03:58:06;101177.31;;;16.04;64.89
5651;BME280;40241;52.684;9.758;2023-05-11T04:00:32;101209.63;;;16.02;64.78
5651;BME280;40241;52.684;9.758;2023-05-11T04:03:02;101190.94;;;16.02;64.79
5651;BME280;40241;52.684;9.758;2023-05-11T04:05:28;101180.88;;;15.99;64.83
5651;BME280;40241;52.684;9.758;2023-05-11T04:07:53;101172.06;;;15.95;64.97
5651;BME280;40241;52.684;9.758;2023-05-11T04:10:19;101181.69;;;15.94;64.82
5651;BME280;40241;52.684;9.758;2023-05-11T04:12:44;101189.78;;;15.92;64.98
5651;BME280;40241;52.684;9.758;2023-05-11T04:15:10;101179.19;;;15.91;65.00
5651;BME280;40241;52.684;9.758;2023-05-11T04:17:35;101192.81;;;15.89;65.11
5651;BME280;40241;52.684;9.758;2023-05-11T04:20:00;101180.47;;;15.90;64.96
5651;BME280;40241;52.684;9.758;2023-05-11T04:22:26;101195.06;;;15.90;64.98
5651;BME280;40241;52.684;9.758;2023-05-11T04:24:51;101199.13;;;15.89;64.92
5651;BME280;40241;52.684;9.758;2023-05-11T04:27:16;101184.50;;;15.89;65.10
5651;BME280;40241;52.684;9.758;2023-05-11T04:29:42;101184.97;;;15.93;64.95
5651;BME280;40241;52.684;9.758;2023-05-11T04:32:07;101219.78;;;15.94;64.79
5651;BME280;40241;52.684;9.758;2023-05-11T04:34:32;101208.69;;;15.94;64.77
5651;BME280;40241;52.684;9.758;2023-05-11T04:36:58;101203.38;;;15.96;64.99
5651;BME280;40241;52.684;9.758;2023-05-11T04:39:23;101203.38;;;15.96;64.85
5651;BME280;40241;52.684;9.758;2023-05-11T04:41:49;101195.03;;;15.96;64.79
5651;BME280;40241;52.684;9.758;2023-05-11T04:44:14;101193.53;;;15.95;64.80
5651;BME280;40241;52.684;9.758;2023-05-11T04:46:39;101235.91;;;15.95;64.91
5651;BME280;40241;52.684;9.758;2023-05-11T04:49:05;101206.66;;;15.94;64.98
5651;BME280;40241;52.684;9.758;2023-05-11T04:51:31;101198.84;;;15.93;64.92
5651;BME280;40241;52.684;9.758;2023-05-11T04:53:56;101212.72;;;15.93;64.98
5651;BME280;40241;52.684;9.758;2023-05-11T04:56:21;101218.72;;;15.97;64.83
5651;BME280;40241;52.684;9.758;2023-05-11T04:58:47;101208.16;;;15.95;64.84
5651;BME280;40241;52.684;9.758;2023-05-11T05:01:12;101204.38;;;15.93;64.84
5651;BME280;40241;52.684;9.758;2023-05-11T05:03:38;101213.19;;;15.97;64.72
5651;BME280;40241;52.684;9.758;2023-05-11T05:06:03;101242.25;;;15.90;64.81
5651;BME280;40241;52.684;9.758;2023-05-11T05:08:28;101202.91;;;15.86;64.94
5651;BME280;40241;52.684;9.758;2023-05-11T05:10:54;101197.13;;;15.84;64.98
5651;BME280;40241;52.684;9.758;2023-05-11T05:13:19;101241.78;;;15.86;65.15
5651;BME280;40241;52.684;9.758;2023-05-11T05:15:44;101221.63;;;15.80;65.18
5651;BME280;40241;52.684;9.758;2023-05-11T05:18:10;101223.88;;;15.82;65.19
5651;BME280;40241;52.684;9.758;2023-05-11T05:20:35;101219.56;;;15.86;65.02
5651;BME280;40241;52.684;9.758;2023-05-11T05:23:01;101206.16;;;15.90;64.74
5651;BME280;40241;52.684;9.758;2023-05-11T05:25:26;101222.31;;;15.92;64.86
5651;BME280;40241;52.684;9.758;2023-05-11T05:27:52;101248.28;;;15.94;64.87
5651;BME280;40241;52.684;9.758;2023-05-11T05:30:17;101214.19;;;15.99;64.73
5651;BME280;40241;52.684;9.758;2023-05-11T05:32:42;101226.78;;;16.00;64.80
5651;BME280;40241;52.684;9.758;2023-05-11T05:35:08;101215.94;;;16.02;64.74
5651;BME280;40241;52.684;9.758;2023-05-11T05:37:33;101221.47;;;16.02;64.75
5651;BME280;40241;52.684;9.758;2023-05-11T05:39:59;101232.88;;;15.99;64.69
5651;BME280;40241;52.684;9.758;2023-05-11T05:42:24;101240.44;;;15.98;64.83
5651;BME280;40241;52.684;9.758;2023-05-11T05:44:49;101236.84;;;16.03;64.76
5651;BME280;40241;52.684;9.758;2023-05-11T05:47:15;101259.88;;;15.98;64.69
5651;BME280;40241;52.684;9.758;2023-05-11T05:49:40;101238.38;;;16.04;64.79
5651;BME280;40241;52.684;9.758;2023-05-11T05:52:06;101254.41;;;16.17;64.74
5651;BME280;40241;52.684;9.758;2023-05-11T05:54:31;101245.84;;;16.15;64.78
5651;BME280;40241;52.684;9.758;2023-05-11T05:56:57;101252.59;;;16.25;64.57
5651;BME280;40241;52.684;9.758;2023-05-11T05:59:22;101253.56;;;16.27;64.53
5651;BME280;40241;52.684;9.758;2023-05-11T06:01:49;101243.69;;;16.32;64.47
5651;BME280;40241;52.684;9.758;2023-05-11T06:04:15;101259.63;;;16.31;64.60
5651;BME280;40241;52.684;9.758;2023-05-11T06:06:40;101253.78;;;16.35;64.52
5651;BME280;40241;52.684;9.758;2023-05-11T06:09:06;101259.81;;;16.39;64.42
5651;BME280;40241;52.684;9.758;2023-05-11T06:11:32;101246.16;;;16.41;64.48
5651;BME280;40241;52.684;9.758;2023-05-11T06:13:57;101274.38;;;16.45;64.35
5651;BME280;40241;52.684;9.758;2023-05-11T06:16:23;101266.06;;;16.45;64.52
5651;BME280;40241;52.684;9.758;2023-05-11T06:18:49;101265.00;;;16.54;64.16
5651;BME280;40241;52.684;9.758;2023-05-11T06:21:14;101252.91;;;16.51;64.15
5651;BME280;40241;52.684;9.758;2023-05-11T06:23:40;101270.78;;;16.56;64.27
5651;BME280;40241;52.684;9.758;2023-05-11T06:26:05;101276.53;;;16.63;64.38
5651;BME280;40241;52.684;9.758;2023-05-11T06:28:30;101271.03;;;16.58;64.31
5651;BME280;40241;52.684;9.758;2023-05-11T06:30:56;101260.16;;;16.60;64.38
5651;BME280;40241;52.684;9.758;2023-05-11T06:33:24;101268.97;;;16.64;64.34
5651;BME280;40241;52.684;9.758;2023-05-11T06:35:50;101253.44;;;16.74;64.40
5651;BME280;40241;52.684;9.758;2023-05-11T06:38:16;101264.06;;;16.75;64.33
5651;BME280;40241;52.684;9.758;2023-05-11T06:40:41;101261.22;;;16.81;64.25
5651;BME280;40241;52.684;9.758;2023-05-11T06:43:07;101256.63;;;16.83;64.21
5651;BME280;40241;52.684;9.758;2023-05-11T06:45:32;101250.84;;;16.81;64.13
5651;BME280;40241;52.684;9.758;2023-05-11T06:47:57;101260.41;;;16.86;64.23
5651;BME280;40241;52.684;9.758;2023-05-11T06:50:23;101268.56;;;16.78;64.11
5651;BME280;40241;52.684;9.758;2023-05-11T06:52:48;101275.34;;;16.83;64.17
5651;BME280;40241;52.684;9.758;2023-05-11T06:55:13;101271.22;;;16.89;64.07
5651;BME280;40241;52.684;9.758;2023-05-11T06:57:39;101273.19;;;16.94;64.01
5651;BME280;40241;52.684;9.758;2023-05-11T07:00:05;101262.00;;;17.00;64.10
5651;BME280;40241;52.684;9.758;2023-05-11T07:02:30;101273.34;;;17.02;64.04
5651;BME280;40241;52.684;9.758;2023-05-11T07:04:56;101275.88;;;17.05;64.00
5651;BME280;40241;52.684;9.758;2023-05-11T07:07:22;101266.34;;;16.95;64.02
5651;BME280;40241;52.684;9.758;2023-05-11T07:09:48;101270.06;;;17.03;64.03
5651;BME280;40241;52.684;9.758;2023-05-11T07:12:13;101262.66;;;17.11;64.11
5651;BME280;40241;52.684;9.758;2023-05-11T07:14:38;101269.41;;;17.16;64.00
5651;BME280;40241;52.684;9.758;2023-05-11T07:17:04;101268.97;;;17.12;63.83
5651;BME280;40241;52.684;9.758;2023-05-11T07:19:29;101256.78;;;17.15;63.91
5651;BME280;40241;52.684;9.758;2023-05-11T07:21:54;101265.06;;;17.20;63.77
5651;BME280;40241;52.684;9.758;2023-05-11T07:24:20;101264.31;;;17.20;63.82
5651;BME280;40241;52.684;9.758;2023-05-11T07:26:45;101272.34;;;17.23;63.90
5651;BME280;40241;52.684;9.758;2023-05-11T07:29:10;101296.66;;;17.23;63.78
5651;BME280;40241;52.684;9.758;2023-05-11T07:31:36;101274.09;;;17.27;63.94
5651;BME280;40241;52.684;9.758;2023-05-11T07:34:01;101265.00;;;17.26;64.03
5651;BME280;40241;52.684;9.758;2023-05-11T07:36:26;101261.41;;;17.31;63.85
5651;BME280;40241;52.684;9.758;2023-05-11T07:38:52;101271.50;;;17.34;64.03
5651;BME280;40241;52.684;9.758;2023-05-11T07:41:17;101258.03;;;17.38;64.05
5651;BME280;40241;52.684;9.758;2023-05-11T07:43:43;101279.16;;;17.47;63.88
5651;BME280;40241;52.684;9.758;2023-05-11T07:46:08;101268.03;;;17.47;63.94
5651;BME280;40241;52.684;9.758;2023-05-11T07:48:34;101264.50;;;17.46;63.85
5651;BME280;40241;52.684;9.758;2023-05-11T07:50:59;101281.91;;;17.52;63.97
5651;BME280;40241;52.684;9.758;2023-05-11T07:53:26;101268.38;;;17.62;63.96
5651;BME280;40241;52.684;9.758;2023-05-11T07:55:51;101270.25;;;17.72;63.75
5651;BME280;40241;52.684;9.758;2023-05-11T07:58:16;101281.75;;;17.82;63.76
5651;BME280;40241;52.684;9.758;2023-05-11T08:00:41;101268.63;;;17.95;63.73
5651;BME280;40241;52.684;9.758;2023-05-11T08:03:07;101273.16;;;17.98;63.78
5651;BME280;40241;52.684;9.758;2023-05-11T08:05:32;101277.16;;;18.03;63.75
5651;BME280;40241;52.684;9.758;2023-05-11T08:08:01;101271.78;;;18.05;63.60
5651;BME280;40241;52.684;9.758;2023-05-11T08:10:27;101274.94;;;18.15;63.54
5651;BME280;40241;52.684;9.758;2023-05-11T08:12:52;101281.78;;;18.14;63.30
5651;BME280;40241;52.684;9.758;2023-05-11T08:15:17;101273.66;;;18.16;63.32
5651;BME280;40241;52.684;9.758;2023-05-11T08:17:43;101277.84;;;18.22;63.24
5651;BME280;40241;52.684;9.758;2023-05-11T08:20:11;101277.56;;;18.26;63.17
5651;BME280;40241;52.684;9.758;2023-05-11T08:22:36;101280.56;;;18.28;63.35
5651;BME280;40241;52.684;9.758;2023-05-11T08:25:02;101286.47;;;18.37;63.03
5651;BME280;40241;52.684;9.758;2023-05-11T08:27:27;101276.09;;;18.38;63.32
5651;BME280;40241;52.684;9.758;2023-05-11T08:29:53;101280.38;;;18.39;63.30
5651;BME280;40241;52.684;9.758;2023-05-11T08:32:19;101279.31;;;18.42;63.07
5651;BME280;40241;52.684;9.758;2023-05-11T08:34:45;101278.28;;;18.45;63.02
5651;BME280;40241;52.684;9.758;2023-05-11T08:37:10;101285.34;;;18.46;62.93
5651;BME280;40241;52.684;9.758;2023-05-11T08:39:36;101282.84;;;18.42;63.19
5651;BME280;40241;52.684;9.758;2023-05-11T08:42:02;101270.69;;;18.45;63.08
5651;BME280;40241;52.684;9.758;2023-05-11T08:44:31;101290.91;;;18.46;63.22
5651;BME280;40241;52.684;9.758;2023-05-11T08:46:57;101287.09;;;18.49;63.14
5651;BME280;40241;52.684;9.758;2023-05-11T08:49:24;101287.50;;;18.53;63.01
5651;BME280;40241;52.684;9.758;2023-05-11T08:51:49;101284.28;;;18.49;62.74
5651;BME280;40241;52.684;9.758;2023-05-11T08:54:15;101293.72;;;18.46;63.24
5651;BME280;40241;52.684;9.758;2023-05-11T08:56:40;101296.25;;;18.44;63.05
5651;BME280;40241;52.684;9.758;2023-05-11T08:59:07;101280.38;;;18.39;63.21
5651;BME280;40241;52.684;9.758;2023-05-11T09:01:34;101276.84;;;18.38;63.15
5651;BME280;40241;52.684;9.758;2023-05-11T09:04:00;101289.81;;;18.36;63.16
5651;BME280;40241;52.684;9.758;2023-05-11T09:06:26;101283.19;;;18.39;63.28
5651;BME280;40241;52.684;9.758;2023-05-11T09:08:53;101291.22;;;18.42;63.05
5651;BME280;40241;52.684;9.758;2023-05-11T09:11:18;101289.44;;;18.45;63.32
5651;BME280;40241;52.684;9.758;2023-05-11T09:13:44;101298.13;;;18.54;63.39
5651;BME280;40241;52.684;9.758;2023-05-11T09:16:10;101288.94;;;18.59;63.33
5651;BME280;40241;52.684;9.758;2023-05-11T09:18:35;101298.47;;;18.64;63.37
5651;BME280;40241;52.684;9.758;2023-05-11T09:21:11;101266.84;;;18.61;63.24
5651;BME280;40241;52.684;9.758;2023-05-11T09:23:36;101290.13;;;18.64;63.31
5651;BME280;40241;52.684;9.758;2023-05-11T09:26:02;101278.22;;;18.63;63.38
5651;BME280;40241;52.684;9.758;2023-05-11T09:28:28;101292.34;;;18.65;63.29
5651;BME280;40241;52.684;9.758;2023-05-11T09:30:53;101286.13;;;18.59;63.32
5651;BME280;40241;52.684;9.758;2023-05-11T09:33:23;101285.59;;;18.61;63.43
5651;BME280;40241;52.684;9.758;2023-05-11T09:35:49;101287.13;;;18.62;63.33
5651;BME280;40241;52.684;9.758;2023-05-11T09:38:15;101284.00;;;18.65;63.31
5651;BME280;40241;52.684;9.758;2023-05-11T09:40:51;101282.41;;;18.70;63.44
5651;BME280;40241;52.684;9.758;2023-05-11T09:43:19;101297.84;;;18.71;63.24
5651;BME280;40241;52.684;9.758;2023-05-11T09:45:46;101299.03;;;18.62;63.05
5651;BME280;40241;52.684;9.758;2023-05-11T09:50:43;101288.94;;;18.59;63.47
5651;BME280;40241;52.684;9.758;2023-05-11T09:53:08;101320.13;;;18.58;63.37
5651;BME280;40241;52.684;9.758;2023-05-11T09:55:34;101282.09;;;18.74;63.58
5651;BME280;40241;52.684;9.758;2023-05-11T09:58:00;101282.97;;;18.82;63.62
5651;BME280;40241;52.684;9.758;2023-05-11T10:00:25;101289.72;;;18.86;63.48
5651;BME280;40241;52.684;9.758;2023-05-11T10:03:04;101279.41;;;18.81;63.46
5651;BME280;40241;52.684;9.758;2023-05-11T10:05:34;101268.03;;;18.66;63.34
5651;BME280;40241;52.684;9.758;2023-05-11T10:08:02;101287.75;;;18.68;63.41
5651;BME280;40241;52.684;9.758;2023-05-11T10:10:31;101295.25;;;18.60;63.49
5651;BME280;40241;52.684;9.758;2023-05-11T10:12:58;101280.56;;;18.59;63.71
5651;BME280;40241;52.684;9.758;2023-05-11T10:15:25;101297.00;;;18.63;63.51
5651;BME280;40241;52.684;9.758;2023-05-11T10:17:56;101277.56;;;18.57;63.59
5651;BME280;40241;52.684;9.758;2023-05-11T10:20:23;101273.19;;;18.62;63.64
5651;BME280;40241;52.684;9.758;2023-05-11T10:22:54;101275.75;;;18.73;63.93
5651;BME280;40241;52.684;9.758;2023-05-11T10:25:23;101273.63;;;18.79;64.06
5651;BME280;40241;52.684;9.758;2023-05-11T10:27:50;101273.00;;;18.86;63.89
5651;BME280;40241;52.684;9.758;2023-05-11T10:30:15;101272.22;;;18.86;63.77
5651;BME280;40241;52.684;9.758;2023-05-11T10:32:43;101268.69;;;18.85;63.76
5651;BME280;40241;52.684;9.758;2023-05-11T10:35:09;101266.13;;;18.87;63.80
5651;BME280;40241;52.684;9.758;2023-05-11T10:37:35;101277.81;;;18.86;63.51
5651;BME280;40241;52.684;9.758;2023-05-11T10:40:00;101263.84;;;18.73;63.71
5651;BME280;40241;52.684;9.758;2023-05-11T10:48:17;101266.75;;;18.54;63.97
5651;BME280;40241;52.684;9.758;2023-05-11T10:51:11;101262.13;;;18.56;64.55
5651;BME280;40241;52.684;9.758;2023-05-11T11:01:49;101263.81;;;18.46;63.97
5651;BME280;40241;52.684;9.758;2023-05-11T11:04:23;101274.97;;;18.46;64.07
5651;BME280;40241;52.684;9.758;2023-05-11T11:07:02;101268.84;;;18.48;64.94
5651;BME280;40241;52.684;9.758;2023-05-11T11:09:58;101260.03;;;18.44;64.81
5651;BME280;40241;52.684;9.758;2023-05-11T11:12:25;101272.47;;;18.43;64.31
5651;BME280;40241;52.684;9.758;2023-05-11T11:15:01;101260.56;;;18.42;64.62
5651;BME280;40241;52.684;9.758;2023-05-11T11:17:29;101260.56;;;18.42;64.49
5651;BME280;40241;52.684;9.758;2023-05-11T11:20:03;101256.75;;;18.45;64.54
5651;BME280;40241;52.684;9.758;2023-05-11T11:25:01;101254.69;;;18.46;64.48
5651;BME280;40241;52.684;9.758;2023-05-11T11:27:56;101244.38;;;18.41;65.48
5651;BME280;40241;52.684;9.758;2023-05-11T11:30:28;101263.19;;;18.53;64.98
5651;BME280;40241;52.684;9.758;2023-05-11T11:38:07;101276.16;;;18.51;64.62
5651;BME280;40241;52.684;9.758;2023-05-11T11:40:39;101276.16;;;18.51;64.97
5651;BME280;40241;52.684;9.758;2023-05-11T11:43:44;101264.25;;;18.50;65.27
5651;BME280;40241;52.684;9.758;2023-05-11T11:46:24;101262.88;;;18.57;65.35
5651;BME280;40241;52.684;9.758;2023-05-11T11:48:50;101278.53;;;18.60;64.75
5651;BME280;40241;52.684;9.758;2023-05-11T11:51:17;101267.50;;;18.67;64.98
5651;BME280;40241;52.684;9.758;2023-05-11T12:01:11;101276.41;;;18.66;64.84
5651;BME280;40241;52.684;9.758;2023-05-11T12:03:38;101274.72;;;18.76;64.95
5651;BME280;40241;52.684;9.758;2023-05-11T12:06:05;101257.53;;;18.85;64.82
5651;BME280;40241;52.684;9.758;2023-05-11T12:08:32;101273.41;;;18.90;64.87
5651;BME280;40241;52.684;9.758;2023-05-11T12:10:58;101283.31;;;19.04;64.76
5651;BME280;40241;52.684;9.758;2023-05-11T12:13:24;101258.50;;;19.14;64.79
5651;BME280;40241;52.684;9.758;2023-05-11T12:16:12;101274.06;;;19.22;65.09
5651;BME280;40241;52.684;9.758;2023-05-11T12:18:39;101256.59;;;19.22;64.49
5651;BME280;40241;52.684;9.758;2023-05-11T12:21:06;101262.47;;;19.18;64.58
5651;BME280;40241;52.684;9.758;2023-05-11T12:23:31;101260.75;;;19.28;64.87
5651;BME280;40241;52.684;9.758;2023-05-11T12:26:07;101265.25;;;19.44;64.64
5651;BME280;40241;52.684;9.758;2023-05-11T12:28:32;101261.19;;;19.46;64.34
5651;BME280;40241;52.684;9.758;2023-05-11T12:30:58;101257.97;;;19.55;64.15
5651;BME280;40241;52.684;9.758;2023-05-11T12:33:23;101273.44;;;19.42;64.08
5651;BME280;40241;52.684;9.758;2023-05-11T12:35:53;101268.03;;;19.31;64.29
5651;BME280;40241;52.684;9.758;2023-05-11T12:38:19;101250.13;;;19.27;64.53
5651;BME280;40241;52.684;9.758;2023-05-11T12:40:48;101256.81;;;19.24;64.25
5651;BME280;40241;52.684;9.758;2023-05-11T12:43:21;101250.66;;;19.25;64.59
5651;BME280;40241;52.684;9.758;2023-05-11T12:45:47;101277.63;;;19.36;64.35
5651;BME280;40241;52.684;9.758;2023-05-11T12:48:13;101242.94;;;19.44;64.20
5651;BME280;40241;52.684;9.758;2023-05-11T12:50:44;101245.84;;;19.39;64.00
5651;BME280;40241;52.684;9.758;2023-05-11T12:53:21;101243.13;;;19.33;64.23
5651;BME280;40241;52.684;9.758;2023-05-11T12:55:58;101242.41;;;19.33;64.25
5651;BME280;40241;52.684;9.758;2023-05-11T12:58:24;101247.03;;;19.30;64.38
5651;BME280;40241;52.684;9.758;2023-05-11T13:03:22;101243.59;;;19.37;64.16
5651;BME280;40241;52.684;9.758;2023-05-11T13:05:48;101232.13;;;19.41;64.35
5651;BME280;40241;52.684;9.758;2023-05-11T13:08:17;101230.28;;;19.43;64.16
5651;BME280;40241;52.684;9.758;2023-05-11T13:10:43;101233.38;;;19.40;64.29
5651;BME280;40241;52.684;9.758;2023-05-11T13:13:08;101231.50;;;19.35;63.97
5651;BME280;40241;52.684;9.758;2023-05-11T13:15:48;101232.31;;;19.30;64.22
5651;BME280;40241;52.684;9.758;2023-05-11T13:18:15;101231.25;;;19.33;64.23
5651;BME280;40241;52.684;9.758;2023-05-11T13:20:41;101235.66;;;19.28;64.11
5651;BME280;40241;52.684;9.758;2023-05-11T13:23:10;101242.31;;;19.25;63.95
5651;BME280;40241;52.684;9.758;2023-05-11T13:28:10;101236.81;;;19.20;64.10
5651;BME280;40241;52.684;9.758;2023-05-11T13:30:36;101225.44;;;19.18;64.18
5651;BME280;40241;52.684;9.758;2023-05-11T13:33:02;101233.59;;;19.16;64.16
5651;BME280;40241;52.684;9.758;2023-05-11T13:35:27;101211.63;;;19.12;64.29
5651;BME280;40241;52.684;9.758;2023-05-11T13:37:52;101231.03;;;19.18;64.37
5651;BME280;40241;52.684;9.758;2023-05-11T13:40:18;101232.22;;;19.22;64.41
5651;BME280;40241;52.684;9.758;2023-05-11T13:42:43;101225.16;;;19.21;64.42
5651;BME280;40241;52.684;9.758;2023-05-11T13:45:09;101211.72;;;19.20;64.32